Time;durP1;ratioP1;P1;durP2;ratioP2;P2;SDS_P1;SDS_P2;PMS_P1;PMS_P2;Temp;Humidity;BMP_temperature;BMP_pressure;BME280_temperature;BME280_humidity;BME280_pressure;Samples;Min_cycle;Max_cycle;Signal;HPM_P1;HPM_P2
2023/12/03 00:01:28;;;;;;;28.13;17.63;;;-1.50;78.90;;;;;;6261982;28;20248;-82
2023/12/03 00:04:32;;;;;;;23.93;17.17;;;-1.50;79.20;;;;;;6265376;28;20252;-86
2023/12/03 00:07:37;;;;;;;27.77;16.97;;;-1.50;79.10;;;;;;6255138;28;20249;-85
2023/12/03 00:10:41;;;;;;;24.47;16.60;;;-1.60;79.00;;;;;;6278191;28;20278;-83
2023/12/03 00:13:44;;;;;;;23.83;15.63;;;-1.70;79.10;;;;;;6263476;28;20287;-82
2023/12/03 00:16:47;;;;;;;24.83;15.70;;;-1.70;79.00;;;;;;6251890;28;20242;-84
2023/12/03 00:19:51;;;;;;;22.13;15.03;;;-1.70;78.90;;;;;;6262518;28;20726;-85
2023/12/03 00:22:55;;;;;;;23.77;16.13;;;-1.70;78.90;;;;;;6262515;28;20261;-86
2023/12/03 00:25:58;;;;;;;23.23;15.93;;;-1.70;78.80;;;;;;6243810;28;20253;-85
2023/12/03 00:29:02;;;;;;;22.17;15.37;;;-1.70;78.70;;;;;;6253778;28;20623;-83
2023/12/03 00:32:05;;;;;;;21.27;14.80;;;-1.70;78.70;;;;;;6251785;28;20320;-83
2023/12/03 00:35:09;;;;;;;20.43;14.70;;;-1.70;78.60;;;;;;6254733;28;20353;-83
2023/12/03 00:38:13;;;;;;;20.97;15.17;;;-1.80;78.80;;;;;;6257999;28;20823;-83
2023/12/03 00:41:17;;;;;;;22.60;14.80;;;-1.80;78.90;;;;;;6255496;28;20768;-82
2023/12/03 00:44:20;;;;;;;20.80;14.30;;;-1.80;78.70;;;;;;6257898;28;20241;-83
2023/12/03 00:47:23;;;;;;;23.93;15.13;;;-1.90;78.80;;;;;;6260311;28;20294;-81
2023/12/03 00:50:27;;;;;;;22.33;15.03;;;-1.90;78.90;;;;;;6261188;28;20244;-84
2023/12/03 00:53:32;;;;;;;19.47;14.97;;;-1.90;78.70;;;;;;6260931;28;20252;-83
2023/12/03 00:56:36;;;;;;;18.67;12.93;;;-1.80;78.70;;;;;;6245345;28;20233;-84
2023/12/03 00:59:39;;;;;;;21.80;13.87;;;-1.80;78.50;;;;;;6269883;28;20389;-85
2023/12/03 01:02:42;;;;;;;22.90;14.20;;;-1.80;78.30;;;;;;6268219;28;20250;-83
2023/12/03 01:05:45;;;;;;;21.83;14.97;;;-1.80;78.20;;;;;;6251421;28;20330;-86
2023/12/03 01:08:49;;;;;;;20.57;13.67;;;-1.80;78.20;;;;;;6262376;28;20234;-83
2023/12/03 01:11:56;;;;;;;16.23;13.13;;;-1.80;77.90;;;;;;6254286;28;20246;-85
2023/12/03 01:14:59;;;;;;;20.00;13.23;;;-1.80;77.60;;;;;;6246544;28;20234;-84
2023/12/03 01:18:02;;;;;;;17.70;13.00;;;-1.90;77.70;;;;;;6262531;28;20291;-83
2023/12/03 01:21:06;;;;;;;16.57;12.43;;;-1.80;77.30;;;;;;6257344;28;20264;-84
2023/12/03 01:24:11;;;;;;;18.90;13.03;;;-1.80;77.50;;;;;;6261881;28;20252;-85
2023/12/03 01:27:15;;;;;;;16.07;13.00;;;-1.90;77.20;;;;;;6250999;28;21808;-83
2023/12/03 01:30:18;;;;;;;14.43;11.63;;;-1.90;77.00;;;;;;6248092;28;20233;-83
2023/12/03 01:33:21;;;;;;;13.90;10.90;;;-2.00;76.60;;;;;;6262204;28;20621;-83
2023/12/03 01:36:24;;;;;;;13.13;11.67;;;-2.10;76.60;;;;;;6249367;28;20230;-84
2023/12/03 01:39:29;;;;;;;14.57;11.30;;;-2.20;76.70;;;;;;6257935;28;20245;-84
2023/12/03 01:42:33;;;;;;;14.13;11.33;;;-2.20;76.90;;;;;;6256707;28;20234;-84
2023/12/03 01:45:38;;;;;;;15.60;11.70;;;-2.20;76.60;;;;;;6251636;28;20942;-85
2023/12/03 01:48:41;;;;;;;13.67;11.97;;;-2.20;76.70;;;;;;6244911;28;20243;-83
2023/12/03 01:51:46;;;;;;;16.43;11.10;;;-2.20;76.70;;;;;;6244338;28;20239;-84
2023/12/03 01:54:52;;;;;;;14.17;10.63;;;-2.20;76.70;;;;;;6252947;28;20239;-83
2023/12/03 01:57:57;;;;;;;12.83;10.60;;;-2.30;76.60;;;;;;6265041;28;20237;-83
2023/12/03 02:01:01;;;;;;;13.80;10.73;;;-2.30;76.60;;;;;;6255838;28;20257;-83
2023/12/03 02:04:04;;;;;;;12.67;10.23;;;-2.30;76.60;;;;;;6257880;28;20352;-82
2023/12/03 02:07:07;;;;;;;11.80;10.57;;;-2.30;76.50;;;;;;6266484;28;20265;-83
2023/12/03 02:10:17;;;;;;;11.73;10.63;;;-2.40;76.60;;;;;;6258659;28;20803;-83
2023/12/03 02:13:21;;;;;;;13.27;10.63;;;-2.30;76.70;;;;;;6253775;28;20605;-83
2023/12/03 02:16:24;;;;;;;13.07;11.13;;;-2.30;76.90;;;;;;6245379;28;20296;-83
2023/12/03 02:19:27;;;;;;;12.13;10.63;;;-2.20;76.70;;;;;;6252717;28;20731;-83
2023/12/03 02:22:30;;;;;;;11.40;10.30;;;-2.20;76.60;;;;;;6253267;28;20807;-85
2023/12/03 02:25:35;;;;;;;11.60;10.47;;;-2.20;76.90;;;;;;6252821;28;20231;-84
2023/12/03 02:28:38;;;;;;;12.50;10.60;;;-2.10;76.60;;;;;;6262137;28;20249;-82
2023/12/03 02:31:43;;;;;;;12.03;10.07;;;-2.20;76.70;;;;;;6259153;28;20242;-85
2023/12/03 02:34:51;;;;;;;13.13;10.40;;;-2.20;76.90;;;;;;6264065;28;20631;-86
2023/12/03 02:37:54;;;;;;;10.90;9.80;;;-2.20;77.00;;;;;;6262802;28;20665;-84
2023/12/03 02:40:58;;;;;;;11.50;10.33;;;-2.10;76.90;;;;;;6255728;28;20245;-86
2023/12/03 02:44:04;;;;;;;9.67;8.73;;;-2.10;76.80;;;;;;6260790;28;20242;-85
2023/12/03 02:47:07;;;;;;;10.77;8.90;;;-2.10;76.90;;;;;;6246694;28;20314;-83
2023/12/03 02:50:11;;;;;;;10.53;9.33;;;-2.10;76.30;;;;;;6263383;28;20599;-86
2023/12/03 02:53:14;;;;;;;11.60;9.60;;;-1.90;75.70;;;;;;6244303;28;20242;-85
2023/12/03 02:56:19;;;;;;;9.40;8.60;;;-1.90;75.50;;;;;;6256249;28;20241;-84
2023/12/03 02:59:22;;;;;;;10.13;9.20;;;-1.90;75.30;;;;;;6242323;28;20342;-84
2023/12/03 03:02:25;;;;;;;9.80;8.80;;;-1.90;75.10;;;;;;6239532;28;20230;-83
2023/12/03 03:05:28;;;;;;;9.50;8.53;;;-1.90;75.20;;;;;;6277494;28;20238;-84
2023/12/03 03:08:32;;;;;;;10.93;9.67;;;-1.90;74.80;;;;;;6259845;28;20237;-84
2023/12/03 03:11:36;;;;;;;11.23;10.17;;;-1.90;75.00;;;;;;6259077;28;20862;-82
2023/12/03 03:14:39;;;;;;;11.37;9.57;;;-1.90;75.20;;;;;;6264422;28;20243;-83
2023/12/03 03:17:43;;;;;;;10.43;9.60;;;-1.90;75.40;;;;;;6244846;28;20242;-83
2023/12/03 03:20:46;;;;;;;9.63;8.73;;;-1.90;75.50;;;;;;6253543;28;20241;-83
2023/12/03 03:23:49;;;;;;;11.17;10.03;;;-1.90;75.30;;;;;;6254956;28;20242;-83
2023/12/03 03:26:54;;;;;;;10.50;9.50;;;-1.80;75.40;;;;;;6275712;28;20249;-81
2023/12/03 03:29:57;;;;;;;13.13;10.83;;;-1.80;75.30;;;;;;6265263;28;20229;-82
2023/12/03 03:33:00;;;;;;;11.30;10.13;;;-1.80;75.20;;;;;;6241338;28;20905;-85
2023/12/03 03:36:04;;;;;;;11.73;10.60;;;-1.80;75.40;;;;;;6242239;28;20391;-83
2023/12/03 03:39:09;;;;;;;11.90;10.70;;;-1.80;75.70;;;;;;6250599;28;20242;-83
2023/12/03 03:42:14;;;;;;;12.80;10.80;;;-1.80;76.00;;;;;;6256094;28;20317;-83
2023/12/03 03:45:17;;;;;;;12.60;11.30;;;-1.80;76.20;;;;;;6248416;28;20239;-83
2023/12/03 03:48:20;;;;;;;12.03;10.47;;;-1.80;76.50;;;;;;6249136;28;20319;-83
2023/12/03 03:51:24;;;;;;;12.70;11.43;;;-1.80;76.50;;;;;;6262540;28;20764;-84
2023/12/03 03:54:27;;;;;;;12.70;11.50;;;-1.80;76.60;;;;;;6260592;28;20229;-83
2023/12/03 03:57:32;;;;;;;13.23;11.43;;;-1.80;76.90;;;;;;6255185;28;20245;-84
2023/12/03 04:00:35;;;;;;;14.90;12.17;;;-1.80;77.20;;;;;;6259703;28;20608;-83
2023/12/03 04:03:38;;;;;;;14.37;12.20;;;-1.80;77.60;;;;;;6258640;28;20283;-84
2023/12/03 04:06:44;;;;;;;18.10;11.77;;;-1.70;77.40;;;;;;6254493;28;20236;-85
2023/12/03 04:09:47;;;;;;;16.07;12.40;;;-1.70;77.50;;;;;;6264664;28;20352;-85
2023/12/03 04:12:52;;;;;;;17.33;13.37;;;-1.70;77.40;;;;;;6258497;28;20234;-85
2023/12/03 04:15:56;;;;;;;16.90;12.90;;;-1.70;78.00;;;;;;6255875;28;20262;-85
2023/12/03 04:19:00;;;;;;;16.70;14.30;;;-1.70;78.30;;;;;;6251444;28;20288;-83
2023/12/03 04:22:03;;;;;;;17.23;13.47;;;-1.70;78.30;;;;;;6248744;28;20241;-83
2023/12/03 04:25:08;;;;;;;18.73;14.37;;;-1.60;78.60;;;;;;6255059;28;20318;-84
2023/12/03 04:28:12;;;;;;;19.03;14.07;;;-1.70;78.90;;;;;;6252879;28;20246;-83
2023/12/03 04:31:19;;;;;;;19.43;14.03;;;-1.70;79.00;;;;;;6251978;28;20230;-83
2023/12/03 04:34:22;;;;;;;17.57;12.77;;;-1.70;79.30;;;;;;6251215;28;20239;-83
2023/12/03 04:37:25;;;;;;;17.00;13.60;;;-1.60;79.20;;;;;;6250136;28;20241;-83
2023/12/03 04:40:29;;;;;;;16.33;13.73;;;-1.60;79.00;;;;;;6248189;28;20233;-83
2023/12/03 04:43:34;;;;;;;19.00;14.40;;;-1.60;79.20;;;;;;6248436;28;20258;-83
2023/12/03 04:46:41;;;;;;;17.57;14.10;;;-1.70;79.60;;;;;;6256912;28;20316;-85
2023/12/03 04:49:44;;;;;;;18.17;14.63;;;-1.60;79.50;;;;;;6249072;28;20332;-85
2023/12/03 04:52:47;;;;;;;19.97;15.33;;;-1.60;79.40;;;;;;6259767;28;20559;-83
2023/12/03 04:55:51;;;;;;;17.93;14.90;;;-1.50;79.10;;;;;;6259107;28;20241;-83
2023/12/03 04:58:55;;;;;;;19.07;15.33;;;-1.50;79.00;;;;;;6254842;28;20307;-83
2023/12/03 05:01:58;;;;;;;19.00;15.90;;;-1.50;79.30;;;;;;6253711;28;20250;-84
2023/12/03 05:05:02;;;;;;;22.30;16.17;;;-1.50;79.20;;;;;;6257223;28;20246;-85
2023/12/03 05:08:05;;;;;;;19.70;15.17;;;-1.50;79.30;;;;;;6260674;28;20252;-85
2023/12/03 05:11:09;;;;;;;23.97;15.73;;;-1.50;79.40;;;;;;6261065;28;20728;-86
2023/12/03 05:14:13;;;;;;;21.37;16.60;;;-1.50;79.70;;;;;;6265183;28;20242;-85
2023/12/03 05:17:17;;;;;;;22.03;16.17;;;-1.50;79.90;;;;;;6257911;28;20241;-85
2023/12/03 05:20:20;;;;;;;19.67;16.40;;;-1.50;80.00;;;;;;6244664;28;20246;-85
2023/12/03 05:23:24;;;;;;;22.83;17.43;;;-1.60;80.10;;;;;;6273244;28;20753;-83
2023/12/03 05:26:27;;;;;;;24.50;18.20;;;-1.50;80.30;;;;;;6245912;28;20241;-84
2023/12/03 05:29:32;;;;;;;22.23;16.73;;;-1.50;80.20;;;;;;6254694;28;20964;-84
2023/12/03 05:32:35;;;;;;;24.20;16.23;;;-1.60;80.30;;;;;;6265763;28;20245;-82
2023/12/03 05:35:38;;;;;;;19.47;16.07;;;-1.50;80.40;;;;;;6257761;28;20248;-86
2023/12/03 05:38:42;;;;;;;22.33;17.17;;;-1.50;80.30;;;;;;6258866;28;20229;-83
2023/12/03 05:41:45;;;;;;;21.67;16.67;;;-1.50;80.10;;;;;;6256735;28;20326;-85
2023/12/03 05:44:49;;;;;;;21.13;15.03;;;-1.50;80.00;;;;;;6257163;28;20287;-85
2023/12/03 05:47:53;;;;;;;20.10;16.43;;;-1.50;79.70;;;;;;6255018;28;20617;-84
2023/12/03 05:50:56;;;;;;;21.43;16.87;;;-1.50;79.80;;;;;;6254797;28;20256;-84
2023/12/03 05:53:59;;;;;;;21.47;16.60;;;-1.50;79.90;;;;;;6257370;28;20594;-85
2023/12/03 05:57:03;;;;;;;21.60;16.47;;;-1.50;79.70;;;;;;6259604;28;20371;-84
2023/12/03 06:00:08;;;;;;;23.00;17.33;;;-1.50;79.80;;;;;;6257790;28;20237;-84
2023/12/03 06:03:12;;;;;;;20.47;15.97;;;-1.50;79.70;;;;;;6256824;28;20230;-86
2023/12/03 06:06:15;;;;;;;23.03;16.83;;;-1.50;79.80;;;;;;6254679;28;20316;-86
2023/12/03 06:09:18;;;;;;;22.10;16.07;;;-1.50;79.70;;;;;;6259823;28;20344;-86
2023/12/03 06:12:21;;;;;;;21.67;17.23;;;-1.50;79.40;;;;;;6248253;28;20237;-85
2023/12/03 06:15:26;;;;;;;23.53;16.60;;;-1.60;79.80;;;;;;6264406;28;20247;-86
2023/12/03 06:18:35;;;;;;;22.00;16.83;;;-1.60;79.80;;;;;;6256304;28;20231;-84
2023/12/03 06:21:39;;;;;;;20.47;16.20;;;-1.60;80.00;;;;;;6257867;28;20239;-85
2023/12/03 06:24:42;;;;;;;20.80;16.87;;;-1.60;79.70;;;;;;6268533;28;20240;-85
2023/12/03 06:27:46;;;;;;;18.33;15.10;;;-1.60;79.50;;;;;;6265792;28;20309;-87
2023/12/03 06:30:54;;;;;;;23.00;16.37;;;-1.60;79.40;;;;;;6259712;28;20342;-86
2023/12/03 06:33:58;;;;;;;20.50;16.27;;;-1.60;79.30;;;;;;6260157;28;20265;-86
2023/12/03 06:37:04;;;;;;;19.67;15.20;;;-1.60;79.00;;;;;;6264488;28;20234;-86
2023/12/03 06:40:10;;;;;;;21.57;16.27;;;-1.60;78.80;;;;;;6260903;28;20235;-86
2023/12/03 06:43:15;;;;;;;21.97;15.63;;;-1.60;78.60;;;;;;6257369;28;20317;-87
2023/12/03 06:46:22;;;;;;;21.50;16.00;;;-1.60;78.80;;;;;;6266970;28;20321;-84
2023/12/03 06:49:27;;;;;;;20.90;16.80;;;-1.60;78.70;;;;;;6259373;28;20243;-86
2023/12/03 06:52:31;;;;;;;21.10;16.97;;;-1.70;78.90;;;;;;6262110;28;20238;-86
2023/12/03 06:55:34;;;;;;;23.60;17.33;;;-1.70;78.90;;;;;;6261589;28;20761;-85
2023/12/03 06:58:38;;;;;;;22.73;16.47;;;-1.80;78.90;;;;;;6255761;28;20230;-85
2023/12/03 07:01:43;;;;;;;24.83;17.30;;;-1.70;79.00;;;;;;6263949;28;20241;-85
2023/12/03 07:04:46;;;;;;;21.70;16.23;;;-1.70;78.70;;;;;;6255884;28;20252;-85
2023/12/03 07:07:51;;;;;;;20.77;16.23;;;-1.70;78.70;;;;;;6255883;28;20316;-85
2023/12/03 07:10:54;;;;;;;21.13;15.57;;;-1.70;78.50;;;;;;6250452;28;20244;-85
2023/12/03 07:13:57;;;;;;;18.43;15.83;;;-1.70;78.70;;;;;;6258908;28;20250;-84
2023/12/03 07:17:02;;;;;;;23.10;16.63;;;-1.80;78.60;;;;;;6261096;28;20242;-87
2023/12/03 07:20:07;;;;;;;18.73;15.33;;;-1.90;78.90;;;;;;6256599;28;20244;-86
2023/12/03 07:23:10;;;;;;;20.80;16.43;;;-1.90;79.00;;;;;;6262925;28;20395;-84
2023/12/03 07:26:14;;;;;;;22.17;15.73;;;-1.80;78.90;;;;;;6262995;28;20718;-86
2023/12/03 07:29:19;;;;;;;22.00;16.03;;;-1.80;78.60;;;;;;6254715;28;20230;-84
2023/12/03 07:32:24;;;;;;;22.17;16.87;;;-1.90;78.70;;;;;;6253690;28;20253;-84
2023/12/03 07:35:27;;;;;;;21.77;16.57;;;-1.80;78.70;;;;;;6253521;28;20234;-83
2023/12/03 07:38:30;;;;;;;21.17;16.20;;;-1.80;78.70;;;;;;6246673;28;20322;-84
2023/12/03 07:41:34;;;;;;;19.70;15.67;;;-1.80;78.60;;;;;;6254297;28;20245;-84
2023/12/03 07:44:37;;;;;;;21.23;16.73;;;-1.80;78.40;;;;;;6253033;28;20417;-84
2023/12/03 07:47:42;;;;;;;23.10;17.80;;;-1.80;78.40;;;;;;6258442;28;20242;-84
2023/12/03 07:50:46;;;;;;;22.40;16.90;;;-1.90;78.80;;;;;;6259219;28;20237;-84
2023/12/03 07:53:49;;;;;;;23.90;17.73;;;-2.00;78.90;;;;;;6255091;28;20240;-85
2023/12/03 07:56:52;;;;;;;20.43;16.90;;;-1.90;78.70;;;;;;6261828;28;20316;-85
2023/12/03 07:59:55;;;;;;;22.50;17.87;;;-1.80;78.50;;;;;;6252941;28;20245;-86
2023/12/03 08:03:00;;;;;;;24.13;17.40;;;-1.80;78.50;;;;;;6247974;28;20242;-87
2023/12/03 08:06:05;;;;;;;24.47;17.03;;;-1.80;78.50;;;;;;6260398;28;20614;-85
2023/12/03 08:09:08;;;;;;;23.67;17.57;;;-1.80;78.60;;;;;;6254108;28;20271;-87
2023/12/03 08:12:11;;;;;;;20.73;16.77;;;-1.90;78.50;;;;;;6262190;28;20246;-85
2023/12/03 08:15:15;;;;;;;22.57;16.30;;;-2.00;78.50;;;;;;6253998;28;20234;-86
2023/12/03 08:18:19;;;;;;;20.20;14.97;;;-2.00;78.20;;;;;;6250701;28;20294;-87
2023/12/03 08:21:22;;;;;;;18.43;14.93;;;-1.90;78.10;;;;;;6262401;28;20253;-88
2023/12/03 08:24:25;;;;;;;20.67;15.03;;;-1.80;77.70;;;;;;6250635;28;20304;-84
2023/12/03 08:27:29;;;;;;;19.77;15.37;;;-1.90;77.50;;;;;;6262167;28;20229;-88
2023/12/03 08:30:32;;;;;;;20.20;15.93;;;-1.90;77.80;;;;;;6261012;28;20234;-86
2023/12/03 08:33:37;;;;;;;19.87;14.97;;;-1.70;77.80;;;;;;6263313;28;20234;-86
2023/12/03 08:36:40;;;;;;;18.37;14.50;;;-1.70;77.20;;;;;;6254704;28;20297;-88
2023/12/03 08:39:44;;;;;;;16.30;14.37;;;-1.60;76.50;;;;;;6263010;28;20234;-85
2023/12/03 08:42:47;;;;;;;22.30;15.30;;;-1.70;76.40;;;;;;6255849;28;20229;-84
2023/12/03 08:45:50;;;;;;;20.00;15.13;;;-1.70;76.20;;;;;;6251821;28;20234;-85
2023/12/03 08:48:55;;;;;;;20.97;14.93;;;-1.90;76.60;;;;;;6248867;28;20239;-85
2023/12/03 08:51:59;;;;;;;18.23;14.87;;;-1.80;77.40;;;;;;6258244;28;20241;-83
2023/12/03 08:55:02;;;;;;;17.87;13.77;;;-1.80;76.90;;;;;;6256508;28;20337;-84
2023/12/03 08:58:05;;;;;;;17.97;14.60;;;-1.80;76.40;;;;;;6250394;28;20257;-83
2023/12/03 09:01:09;;;;;;;17.70;14.33;;;-1.80;76.50;;;;;;6262183;28;20717;-82
2023/12/03 09:04:13;;;;;;;15.53;13.00;;;-1.80;76.20;;;;;;6258072;28;20329;-84
2023/12/03 09:07:17;;;;;;;14.77;13.07;;;-1.80;76.00;;;;;;6253494;28;20234;-84
2023/12/03 09:10:22;;;;;;;14.40;12.83;;;-1.90;76.10;;;;;;6253387;28;20242;-85
2023/12/03 09:13:25;;;;;;;16.97;13.67;;;-2.10;76.30;;;;;;6262094;28;20744;-86
2023/12/03 09:16:29;;;;;;;16.87;13.60;;;-2.10;76.60;;;;;;6254584;28;20234;-84
2023/12/03 09:19:33;;;;;;;17.30;14.07;;;-2.10;76.60;;;;;;6249980;28;20241;-84
2023/12/03 09:22:37;;;;;;;14.77;13.17;;;-2.10;76.20;;;;;;6255785;28;20249;-87
2023/12/03 09:25:41;;;;;;;16.57;13.53;;;-2.00;76.30;;;;;;6245589;28;20241;-84
2023/12/03 09:28:47;;;;;;;15.93;14.33;;;-2.20;76.50;;;;;;6253478;28;20324;-84
2023/12/03 09:31:56;;;;;;;16.77;14.20;;;-2.10;77.00;;;;;;6255274;28;20246;-85
2023/12/03 09:35:01;;;;;;;16.17;13.00;;;-2.10;76.90;;;;;;6255956;28;20317;-83
2023/12/03 09:38:04;;;;;;;17.40;14.37;;;-2.10;77.10;;;;;;6252057;28;20871;-83
2023/12/03 09:41:13;;;;;;;17.97;14.77;;;-1.90;76.60;;;;;;6252220;28;20230;-84
2023/12/03 09:44:22;;;;;;;17.10;14.27;;;-1.90;76.20;;;;;;6247473;28;20255;-83
2023/12/03 09:47:27;;;;;;;16.13;13.97;;;-1.80;76.40;;;;;;6248425;28;20317;-84
2023/12/03 09:50:35;;;;;;;17.87;13.80;;;-1.80;76.20;;;;;;6257321;28;20325;-85
2023/12/03 09:53:44;;;;;;;16.73;14.10;;;-1.90;76.60;;;;;;6250189;28;20403;-85
2023/12/03 09:56:48;;;;;;;21.37;14.90;;;-2.00;76.60;;;;;;6258983;28;20273;-86
2023/12/03 09:59:57;;;;;;;16.07;13.57;;;-2.10;76.90;;;;;;6261849;28;20248;-83
2023/12/03 10:03:00;;;;;;;16.30;12.93;;;-2.00;76.70;;;;;;6254591;28;20237;-85
2023/12/03 10:06:06;;;;;;;14.83;13.33;;;-1.90;75.90;;;;;;6252914;28;20234;-81
2023/12/03 10:09:10;;;;;;;15.10;13.17;;;-2.00;75.90;;;;;;6246277;28;20311;-83
2023/12/03 10:12:17;;;;;;;14.93;12.67;;;-1.90;75.70;;;;;;6244936;28;20325;-85
2023/12/03 10:15:24;;;;;;;13.70;12.30;;;-1.90;75.50;;;;;;6253129;28;20241;-85
2023/12/03 10:18:27;;;;;;;17.63;14.10;;;-1.90;75.60;;;;;;6251382;28;20249;-85
2023/12/03 10:21:32;;;;;;;14.33;12.83;;;-1.80;75.80;;;;;;6264667;28;20784;-85
2023/12/03 10:24:46;;;;;;;15.00;12.77;;;-1.70;75.20;;;;;;6256782;28;20886;-87
2023/12/03 10:27:52;;;;;;;15.17;13.03;;;-1.70;75.20;;;;;;6254215;28;20237;-85
2023/12/03 10:30:56;;;;;;;13.67;12.27;;;-1.60;75.20;;;;;;6257581;28;20253;-84
2023/12/03 10:33:59;;;;;;;14.10;12.70;;;-1.60;74.70;;;;;;6255698;28;20756;-84
2023/12/03 10:37:05;;;;;;;15.50;12.73;;;-1.60;75.00;;;;;;6260558;28;20907;-82
2023/12/03 10:40:09;;;;;;;12.80;11.53;;;-1.50;75.00;;;;;;6261164;28;20273;-79
2023/12/03 10:43:12;;;;;;;13.40;12.00;;;-1.50;74.90;;;;;;6265096;28;20300;-84
2023/12/03 10:46:15;;;;;;;14.50;12.70;;;-1.40;74.30;;;;;;6258652;28;20238;-82
2023/12/03 10:49:42;;;;;;;12.33;11.13;;;-1.50;73.70;;;;;;6263024;28;20262;-80
2023/12/03 10:52:47;;;;;;;14.03;12.40;;;-1.50;74.20;;;;;;6260937;28;20236;-82
2023/12/03 10:55:51;;;;;;;14.30;12.87;;;-1.40;74.20;;;;;;6262905;28;20292;-81
2023/12/03 10:58:59;;;;;;;14.37;12.63;;;-1.30;74.30;;;;;;6265355;28;20250;-80
2023/12/03 11:02:08;;;;;;;13.07;11.70;;;-1.20;73.50;;;;;;6253711;28;20265;-81
2023/12/03 11:05:18;;;;;;;12.60;11.30;;;-1.30;73.50;;;;;;6262624;28;20242;-80
2023/12/03 11:08:24;;;;;;;12.97;11.67;;;-1.30;73.20;;;;;;6258461;28;20223;-82
2023/12/03 11:11:29;;;;;;;13.37;12.00;;;-1.40;73.20;;;;;;6264349;28;20234;-81
2023/12/03 11:14:36;;;;;;;13.17;11.87;;;-1.40;73.30;;;;;;6259451;28;20268;-86
2023/12/03 11:17:56;;;;;;;14.33;12.83;;;-1.50;73.40;;;;;;6269568;28;20245;-85
2023/12/03 11:21:09;;;;;;;13.53;11.97;;;-1.50;73.40;;;;;;6263090;28;20750;-87
2023/12/03 11:24:44;;;;;;;13.00;11.40;;;-1.60;74.00;;;;;;6260857;28;20246;-84
2023/12/03 11:27:47;;;;;;;13.40;12.10;;;-1.50;74.20;;;;;;6262103;28;20613;-83
2023/12/03 11:30:51;;;;;;;12.70;11.47;;;-1.30;73.80;;;;;;6257745;28;20603;-88
2023/12/03 11:33:58;;;;;;;12.60;11.47;;;-1.50;73.90;;;;;;6260529;28;20246;-86
2023/12/03 11:37:02;;;;;;;13.03;11.77;;;-1.50;73.60;;;;;;6257751;28;20242;-86
2023/12/03 11:40:14;;;;;;;13.57;12.17;;;-1.50;73.90;;;;;;6261740;28;20596;-83
2023/12/03 11:43:24;;;;;;;13.70;12.30;;;-1.50;74.00;;;;;;6260791;28;20277;-83
2023/12/03 11:46:29;;;;;;;13.40;11.73;;;-1.50;74.60;;;;;;6254832;28;20227;-87
2023/12/03 11:49:35;;;;;;;12.33;11.13;;;-1.40;73.70;;;;;;6259900;28;20240;-85
2023/12/03 11:52:38;;;;;;;12.23;11.00;;;-1.30;73.20;;;;;;6259682;28;20242;-86
2023/12/03 11:55:46;;;;;;;13.07;11.77;;;-1.10;73.00;;;;;;6246276;28;20244;-84
2023/12/03 11:58:50;;;;;;;13.00;11.67;;;-1.00;72.90;;;;;;6253951;28;20253;-85
2023/12/03 12:01:53;;;;;;;12.67;11.37;;;-1.10;72.20;;;;;;6262237;28;20313;-85
2023/12/03 12:05:03;;;;;;;13.00;11.50;;;-1.30;72.90;;;;;;6265371;28;20234;-85
2023/12/03 12:08:06;;;;;;;13.00;11.70;;;-1.40;73.70;;;;;;6257306;28;20297;-84
2023/12/03 12:11:12;;;;;;;13.97;12.07;;;-1.40;73.90;;;;;;6244658;28;20822;-85
2023/12/03 12:14:16;;;;;;;14.37;11.60;;;-1.50;74.20;;;;;;6259957;28;20399;-86
2023/12/03 12:17:19;;;;;;;15.60;14.00;;;-1.30;74.20;;;;;;6256459;28;20321;-85
2023/12/03 12:20:23;;;;;;;15.27;13.00;;;-1.30;73.80;;;;;;6263704;28;20326;-86
2023/12/03 12:23:27;;;;;;;15.87;13.17;;;-1.30;73.90;;;;;;6262965;28;20226;-86
2023/12/03 12:26:31;;;;;;;16.53;13.43;;;-1.30;73.90;;;;;;6266049;28;20299;-86
2023/12/03 12:29:35;;;;;;;19.33;14.13;;;-1.50;74.30;;;;;;6261477;28;20246;-85
2023/12/03 12:32:38;;;;;;;16.23;13.80;;;-1.70;75.30;;;;;;6250189;28;20326;-85
2023/12/03 12:35:42;;;;;;;17.40;14.33;;;-1.70;75.80;;;;;;6262617;28;21008;-84
2023/12/03 12:38:45;;;;;;;17.30;13.67;;;-1.90;76.10;;;;;;6261759;28;20262;-84
2023/12/03 12:41:50;;;;;;;17.57;14.53;;;-1.90;76.60;;;;;;6256616;28;20655;-86
2023/12/03 12:44:54;;;;;;;15.67;13.93;;;-1.80;76.30;;;;;;6266070;28;20238;-85
2023/12/03 12:47:57;;;;;;;15.47;13.93;;;-1.80;75.90;;;;;;6266057;28;20406;-84
2023/12/03 12:51:00;;;;;;;15.83;13.13;;;-2.00;76.00;;;;;;6259244;28;20240;-84
2023/12/03 12:54:03;;;;;;;13.97;12.57;;;-1.80;76.40;;;;;;6262775;28;20312;-85
2023/12/03 12:57:08;;;;;;;17.40;13.87;;;-1.70;75.70;;;;;;6264283;28;20242;-86
2023/12/03 13:00:12;;;;;;;15.77;14.17;;;-1.60;75.30;;;;;;6264247;28;20305;-86
2023/12/03 13:03:15;;;;;;;17.53;13.83;;;-1.50;75.40;;;;;;6250694;28;20241;-87
2023/12/03 13:06:20;;;;;;;16.20;13.63;;;-1.50;75.00;;;;;;6259545;28;20233;-87
2023/12/03 13:09:24;;;;;;;19.63;14.57;;;-1.60;75.50;;;;;;6250259;28;20237;-87
2023/12/03 13:12:28;;;;;;;17.00;13.53;;;-1.70;75.70;;;;;;6249923;28;20295;-89
2023/12/03 13:15:32;;;;;;;14.37;12.97;;;-1.80;75.80;;;;;;6272344;28;20221;-84
2023/12/03 13:18:37;;;;;;;15.70;12.90;;;-1.90;76.00;;;;;;6266063;28;20237;-85
2023/12/03 13:21:41;;;;;;;15.63;13.03;;;-1.90;76.20;;;;;;6263636;28;20237;-87
2023/12/03 13:24:46;;;;;;;14.73;13.03;;;-2.00;76.30;;;;;;6267243;28;20321;-86
2023/12/03 13:27:51;;;;;;;14.73;13.20;;;-2.00;76.30;;;;;;6263905;28;20237;-87
2023/12/03 13:30:54;;;;;;;15.17;12.87;;;-1.90;76.00;;;;;;6247634;28;20322;-88
2023/12/03 13:33:58;;;;;;;15.13;12.53;;;-2.00;76.20;;;;;;6266755;28;20242;-88
2023/12/03 13:37:04;;;;;;;19.03;13.40;;;-2.10;76.60;;;;;;6271412;28;20256;-85
2023/12/03 13:40:08;;;;;;;17.77;13.43;;;-2.20;76.80;;;;;;6276255;28;20244;-83
2023/12/03 13:43:25;;;;;;;14.07;12.23;;;-2.30;76.60;;;;;;6278314;28;20234;-84
2023/12/03 13:46:28;;;;;;;14.53;12.93;;;-2.20;76.60;;;;;;6275932;28;20306;-86
2023/12/03 13:49:32;;;;;;;13.77;12.37;;;-2.10;76.10;;;;;;6272437;28;20296;-84
2023/12/03 13:52:35;;;;;;;16.63;13.17;;;-2.00;76.10;;;;;;6282426;28;20238;-84
2023/12/03 13:55:38;;;;;;;14.93;13.37;;;-1.90;75.80;;;;;;6285552;28;20245;-88
2023/12/03 13:58:43;;;;;;;13.90;12.50;;;-1.90;75.70;;;;;;6275099;28;20258;-86
2023/12/03 14:01:46;;;;;;;14.33;12.77;;;-1.90;75.70;;;;;;6267075;28;20238;-87
2023/12/03 14:04:49;;;;;;;14.07;12.57;;;-1.90;75.70;;;;;;6278748;28;20235;-85
2023/12/03 14:07:53;;;;;;;20.93;16.00;;;-1.90;75.80;;;;;;6276944;28;20330;-86
2023/12/03 14:10:57;;;;;;;15.10;13.50;;;-1.90;75.60;;;;;;6280654;28;20234;-87
2023/12/03 14:14:02;;;;;;;17.27;14.67;;;-1.90;75.70;;;;;;6265465;28;20304;-85
2023/12/03 14:17:06;;;;;;;16.60;13.20;;;-1.90;75.10;;;;;;6274722;28;20246;-86
2023/12/03 14:20:10;;;;;;;14.93;12.77;;;-1.90;75.40;;;;;;6264669;28;20734;-85
2023/12/03 14:23:13;;;;;;;17.33;13.00;;;-1.90;75.30;;;;;;6279974;28;20241;-84
2023/12/03 14:26:16;;;;;;;14.33;12.83;;;-1.90;75.30;;;;;;6263892;28;20246;-86
2023/12/03 14:29:21;;;;;;;14.97;12.70;;;-1.80;75.50;;;;;;6267653;28;20242;-85
2023/12/03 14:32:24;;;;;;;15.40;13.20;;;-1.80;75.20;;;;;;6267790;28;20238;-87
2023/12/03 14:35:28;;;;;;;17.77;13.73;;;-1.90;75.50;;;;;;6253707;28;20321;-86
2023/12/03 14:38:32;;;;;;;16.50;13.13;;;-2.10;75.80;;;;;;6264505;28;20317;-87
2023/12/03 14:41:35;;;;;;;15.87;12.93;;;-2.10;75.90;;;;;;6276673;28;20356;-86
2023/12/03 14:44:41;;;;;;;17.13;12.73;;;-2.10;76.20;;;;;;6260763;28;20243;-84
2023/12/03 14:47:44;;;;;;;18.40;12.87;;;-2.10;76.20;;;;;;6269815;28;20740;-87
2023/12/03 14:50:47;;;;;;;16.87;12.60;;;-2.00;76.10;;;;;;6267546;28;20245;-86
2023/12/03 14:53:51;;;;;;;16.47;13.20;;;-1.90;76.00;;;;;;6263727;28;20230;-86
2023/12/03 14:56:54;;;;;;;16.93;13.10;;;-2.00;76.00;;;;;;6269086;28;20406;-87
2023/12/03 14:59:59;;;;;;;17.27;14.43;;;-2.10;76.10;;;;;;6268442;28;20249;-82
2023/12/03 15:03:02;;;;;;;16.10;13.33;;;-2.10;76.30;;;;;;6269218;28;20241;-82
2023/12/03 15:06:06;;;;;;;15.47;13.07;;;-2.10;76.50;;;;;;6263295;28;20230;-85
2023/12/03 15:09:09;;;;;;;17.37;13.47;;;-2.10;76.30;;;;;;6262848;28;20327;-83
2023/12/03 15:12:12;;;;;;;14.67;12.77;;;-2.10;76.20;;;;;;6258895;28;20230;-84
2023/12/03 15:15:19;;;;;;;16.43;12.90;;;-2.10;75.80;;;;;;6255482;28;20832;-86
2023/12/03 15:18:23;;;;;;;14.40;12.20;;;-2.10;75.70;;;;;;6257361;28;20319;-86
2023/12/03 15:21:27;;;;;;;14.27;12.77;;;-2.10;76.00;;;;;;6255045;28;20230;-84
2023/12/03 15:24:30;;;;;;;13.80;12.10;;;-2.10;76.00;;;;;;6258281;28;20237;-83
2023/12/03 15:27:33;;;;;;;14.67;12.57;;;-2.10;75.80;;;;;;6265911;28;20234;-83
2023/12/03 15:30:38;;;;;;;14.90;12.27;;;-2.10;75.90;;;;;;6251981;28;20245;-85
2023/12/03 15:33:41;;;;;;;17.33;14.07;;;-2.10;76.10;;;;;;6261101;28;20249;-85
2023/12/03 15:36:46;;;;;;;15.90;13.10;;;-2.10;76.10;;;;;;6255638;28;20234;-87